createdAt,value
2018-09-09T05:16:33.859Z,99.90
2018-09-09T05:19:01.976Z,99.90
2018-09-09T05:21:30.044Z,99.90
2018-09-09T05:23:58.115Z,99.90
2018-09-09T05:26:26.200Z,99.90
2018-09-09T05:28:54.272Z,99.90
2018-09-09T05:31:22.362Z,99.90
2018-09-09T05:33:50.504Z,99.90
2018-09-09T05:36:18.597Z,99.90
2018-09-09T05:38:46.677Z,99.90
2018-09-09T05:41:14.769Z,99.90
2018-09-09T05:43:42.872Z,99.90
2018-09-09T05:46:10.965Z,99.90
2018-09-09T05:48:39.037Z,99.90
2018-09-09T05:51:07.668Z,99.90
2018-09-09T05:53:35.748Z,99.90
2018-09-09T05:56:03.836Z,99.90
2018-09-09T05:58:31.906Z,99.90
2018-09-09T06:00:59.559Z,99.90
2018-09-09T06:03:27.641Z,99.90
2018-09-09T06:05:55.745Z,99.90
2018-09-09T06:08:23.772Z,99.90
2018-09-09T06:10:54.432Z,99.90
2018-09-09T06:13:23.945Z,99.90
2018-09-09T06:15:52.012Z,99.90
2018-09-09T06:18:20.089Z,99.90
2018-09-09T06:20:48.168Z,99.90
2018-09-09T06:23:16.432Z,99.90
2018-09-09T06:25:44.936Z,99.90
2018-09-09T06:28:13.076Z,99.90
2018-09-09T06:30:41.163Z,99.90
2018-09-09T06:33:09.277Z,99.90
2018-09-09T06:35:37.552Z,99.90
2018-09-09T06:38:05.621Z,99.90
2018-09-09T06:40:33.693Z,99.90
2018-09-09T06:43:01.792Z,99.90
2018-09-09T06:45:29.912Z,99.90
2018-09-09T06:47:58.184Z,99.90
2018-09-09T06:50:26.244Z,99.90
2018-09-09T06:52:54.319Z,99.90
2018-09-09T06:55:22.448Z,99.90
2018-09-09T06:57:50.477Z,99.90
2018-09-09T07:00:18.926Z,99.90
2018-09-09T07:02:47.021Z,99.90
2018-09-09T07:05:15.108Z,99.90
2018-09-09T07:07:43.175Z,99.90
2018-09-09T07:10:11.241Z,99.90
2018-09-09T07:12:39.312Z,99.90
2018-09-09T07:15:07.392Z,99.90
2018-09-09T07:17:35.464Z,99.90
2018-09-09T07:20:03.536Z,99.90
2018-09-09T07:22:31.634Z,99.90
2018-09-09T07:24:59.688Z,99.90
2018-09-09T07:27:27.756Z,99.90
2018-09-09T07:29:55.869Z,99.60
2018-09-09T07:34:58.548Z,97.20
2018-09-09T07:37:26.746Z,97.30
2018-09-09T07:39:54.734Z,96.70
2018-09-09T07:42:22.848Z,95.90
2018-09-09T07:44:50.927Z,96.30
2018-09-09T07:47:19.048Z,95.70
2018-09-09T07:49:47.184Z,95.10
2018-09-09T07:52:15.272Z,93.90
2018-09-09T07:54:43.368Z,94.00
2018-09-09T07:57:11.485Z,93.60
2018-09-09T07:59:39.565Z,91.60
2018-09-09T08:02:07.309Z,90.90
2018-09-09T08:04:35.720Z,92.10
2018-09-09T08:07:03.824Z,92.20
2018-09-09T08:09:31.908Z,91.40
2018-09-09T08:12:00.057Z,92.00
2018-09-09T08:14:28.108Z,91.60
2018-09-09T08:16:56.201Z,92.30
2018-09-09T08:19:24.284Z,92.30
2018-09-09T08:21:52.379Z,92.40
2018-09-09T08:24:20.637Z,91.30
2018-09-09T08:26:48.708Z,91.50
2018-09-09T08:29:16.784Z,92.70
2018-09-09T08:31:44.867Z,93.10
2018-09-09T08:34:12.972Z,92.90
2018-09-09T08:36:41.096Z,92.20
2018-09-09T08:39:10.330Z,91.60
2018-09-09T08:41:38.418Z,91.90
2018-09-09T08:44:06.624Z,91.60
2018-09-09T08:46:34.736Z,91.20
2018-09-09T08:49:02.813Z,90.90
2018-09-09T08:51:30.921Z,90.80
2018-09-09T08:53:59.006Z,90.30
2018-09-09T08:56:27.079Z,90.00
2018-09-09T08:58:55.193Z,90.20
2018-09-09T09:01:22.850Z,91.10
2018-09-09T09:03:50.943Z,91.10
2018-09-09T09:06:19.024Z,89.40
2018-09-09T09:08:47.192Z,90.30
2018-09-09T09:11:15.257Z,87.20
2018-09-09T09:13:43.409Z,85.70
2018-09-09T09:16:11.518Z,87.60
2018-09-09T09:18:39.636Z,85.90
2018-09-09T09:21:07.709Z,85.20
2018-09-09T09:23:36.693Z,85.20
2018-09-09T09:26:04.757Z,85.60
2018-09-09T09:28:32.839Z,83.70
2018-09-09T09:31:00.935Z,84.80
2018-09-09T09:33:29.013Z,83.70
2018-09-09T09:35:57.132Z,82.90
2018-09-09T09:38:25.209Z,84.70
2018-09-09T09:40:53.466Z,81.10
2018-09-09T09:43:21.607Z,81.60
2018-09-09T09:45:49.637Z,83.20
2018-09-09T09:48:17.718Z,87.60
2018-09-09T09:50:45.797Z,86.00
2018-09-09T09:53:13.969Z,86.40
2018-09-09T09:55:41.959Z,84.20
2018-09-09T09:58:10.139Z,84.60
2018-09-09T10:00:44.865Z,82.80
2018-09-09T10:03:12.924Z,83.50
2018-09-09T10:05:41.115Z,83.60
2018-09-09T10:08:09.213Z,82.40
2018-09-09T10:10:37.361Z,80.50
2018-09-09T10:13:05.459Z,81.10
2018-09-09T10:15:33.543Z,79.70
2018-09-09T10:18:01.618Z,82.00
2018-09-09T10:20:29.694Z,79.30
2018-09-09T10:22:57.805Z,79.80
2018-09-09T10:25:25.935Z,77.80
2018-09-09T10:27:54.081Z,77.70
2018-09-09T10:30:22.261Z,77.60
2018-09-09T10:32:50.396Z,77.00
2018-09-09T10:35:18.490Z,77.20
2018-09-09T10:37:46.565Z,73.50
2018-09-09T10:40:14.691Z,75.80
2018-09-09T10:42:42.812Z,73.80
2018-09-09T10:45:10.915Z,76.80
2018-09-09T10:47:38.984Z,75.50
2018-09-09T10:50:07.435Z,78.00
2018-09-09T10:52:35.513Z,76.10
2018-09-09T10:55:03.595Z,76.80
2018-09-09T10:57:31.667Z,76.90
2018-09-09T10:59:59.814Z,77.40
2018-09-09T11:02:27.954Z,76.20
2018-09-09T11:04:56.249Z,79.30
2018-09-09T11:07:24.334Z,80.80
2018-09-09T11:09:52.402Z,78.10
2018-09-09T11:12:24.754Z,79.60
2018-09-09T11:14:52.817Z,76.00
2018-09-09T11:17:20.938Z,77.60
2018-09-09T11:19:49.010Z,73.40
2018-09-09T11:22:17.112Z,74.40
2018-09-09T11:24:45.215Z,75.50
2018-09-09T11:27:13.346Z,76.70
2018-09-09T11:29:41.486Z,79.10
2018-09-09T11:32:09.584Z,78.30
2018-09-09T11:34:37.779Z,79.40
2018-09-09T11:37:05.869Z,81.00
2018-09-09T11:39:33.988Z,79.50
2018-09-09T11:42:02.080Z,80.80
2018-09-09T11:44:30.169Z,76.40
2018-09-09T11:46:58.280Z,77.50
2018-09-09T11:49:26.389Z,79.10
2018-09-09T11:51:54.509Z,75.60
2018-09-09T11:54:22.620Z,75.50
2018-09-09T11:56:50.703Z,76.10
2018-09-09T11:59:18.844Z,74.70
2018-09-09T12:01:47.793Z,76.30
2018-09-09T12:04:15.902Z,75.70
2018-09-09T12:06:44.209Z,77.20
2018-09-09T12:09:12.637Z,76.50
2018-09-09T12:11:40.921Z,76.90
2018-09-09T12:14:09.040Z,76.80
2018-09-09T12:16:37.398Z,76.20
2018-09-09T12:19:05.556Z,76.20
2018-09-09T12:21:33.933Z,76.20
2018-09-09T12:24:02.012Z,77.80
2018-09-09T12:26:30.093Z,76.40
2018-09-09T12:28:58.233Z,74.80
2018-09-09T12:31:26.388Z,76.00
2018-09-09T12:33:54.466Z,71.70
2018-09-09T12:36:22.580Z,73.30
2018-09-09T12:38:50.694Z,74.30
2018-09-09T12:41:18.768Z,76.70
2018-09-09T12:43:52.432Z,74.10
2018-09-09T12:46:25.804Z,75.10
2018-09-09T12:49:00.651Z,77.30
2018-09-09T12:51:28.750Z,75.90
2018-09-09T12:53:56.843Z,76.90
2018-09-09T12:56:24.937Z,77.00
2018-09-09T12:58:53.022Z,76.90
2018-09-09T13:01:21.119Z,76.50
2018-09-09T13:03:49.874Z,75.90
2018-09-09T13:06:17.992Z,77.50
2018-09-09T13:08:46.124Z,74.50
2018-09-09T13:11:14.232Z,71.00
2018-09-09T13:13:42.327Z,71.10
2018-09-09T13:16:10.436Z,72.10
2018-09-09T13:18:38.526Z,71.80
2018-09-09T13:21:06.633Z,70.40
2018-09-09T13:23:34.764Z,69.00
2018-09-09T13:26:02.881Z,69.90
2018-09-09T13:28:31.254Z,72.80
2018-09-09T13:30:59.666Z,71.80
2018-09-09T13:33:27.757Z,70.00
2018-09-09T13:35:55.919Z,71.40
2018-09-09T13:38:24.538Z,71.10
2018-09-09T13:40:52.629Z,73.50
2018-09-09T13:43:20.747Z,74.90
2018-09-09T13:45:48.881Z,73.80
2018-09-09T13:48:17.104Z,75.10
2018-09-09T13:50:45.085Z,72.80
2018-09-09T13:53:13.232Z,72.40
2018-09-09T13:55:41.665Z,73.10
2018-09-09T13:58:09.810Z,73.80
2018-09-09T14:00:37.578Z,73.50
2018-09-09T14:03:05.221Z,75.20
2018-09-09T14:05:35.059Z,73.50
2018-09-09T14:08:03.138Z,73.80
2018-09-09T14:10:31.230Z,75.30
2018-09-09T14:12:59.489Z,73.80
2018-09-09T14:15:27.645Z,73.10
2018-09-09T14:17:55.756Z,74.10
2018-09-09T14:20:23.835Z,72.20
2018-09-09T14:22:53.940Z,74.30
2018-09-09T14:25:22.325Z,74.50
2018-09-09T14:27:50.517Z,74.50
2018-09-09T14:30:18.558Z,72.20
2018-09-09T14:32:46.655Z,73.30
2018-09-09T14:35:14.761Z,74.10
2018-09-09T14:37:42.842Z,74.30
2018-09-09T14:40:10.929Z,75.40
2018-09-09T14:42:38.852Z,76.20
2018-09-09T14:45:06.948Z,77.30
2018-09-09T14:47:35.124Z,77.30
2018-09-09T14:50:03.248Z,76.10
2018-09-09T14:52:31.332Z,75.00
2018-09-09T14:54:59.548Z,78.50
2018-09-09T14:57:27.695Z,76.30
2018-09-09T14:59:55.798Z,77.70
2018-09-09T15:02:24.300Z,74.30
2018-09-09T15:04:52.421Z,77.90
2018-09-09T15:07:20.505Z,73.70
2018-09-09T15:09:48.616Z,73.80
2018-09-09T15:12:18.011Z,72.90
2018-09-09T15:14:46.978Z,72.60
2018-09-09T15:17:16.256Z,73.60
2018-09-09T15:19:44.519Z,73.80
2018-09-09T15:22:12.676Z,74.40
2018-09-09T15:24:40.594Z,76.90
2018-09-09T15:27:08.724Z,72.60
2018-09-09T15:29:36.520Z,77.80
2018-09-09T15:32:04.717Z,74.60
2018-09-09T15:34:34.345Z,73.90
2018-09-09T15:37:02.497Z,74.40
2018-09-09T15:39:30.638Z,75.50
2018-09-09T15:41:58.724Z,74.50
2018-09-09T15:44:26.849Z,74.00
2018-09-09T15:46:54.973Z,74.60
2018-09-09T15:49:23.090Z,74.10
2018-09-09T15:51:51.260Z,75.10
2018-09-09T15:54:19.312Z,76.30
2018-09-09T15:56:47.405Z,75.90
2018-09-09T15:59:15.529Z,75.30
2018-09-09T16:01:43.669Z,74.80
2018-09-09T16:04:11.781Z,76.00
2018-09-09T16:06:39.879Z,75.70
2018-09-09T16:09:08.848Z,75.60
2018-09-09T16:11:36.967Z,75.00
2018-09-09T16:14:05.105Z,75.30
2018-09-09T16:16:33.189Z,74.70
2018-09-09T16:19:01.541Z,74.60
2018-09-09T16:21:30.583Z,74.50
2018-09-09T16:23:58.709Z,75.50
2018-09-09T16:26:26.837Z,76.90
2018-09-09T16:28:55.041Z,76.80
2018-09-09T16:31:23.153Z,78.40
2018-09-09T16:33:51.529Z,78.10
2018-09-09T16:36:19.265Z,75.90
2018-09-09T16:38:47.378Z,75.30
2018-09-09T16:41:15.593Z,75.90
2018-09-09T16:43:43.705Z,76.80
2018-09-09T16:46:11.890Z,76.90
2018-09-09T16:48:40.062Z,76.60
2018-09-09T16:51:08.325Z,76.90
2018-09-09T16:53:36.521Z,77.10
2018-09-09T16:56:05.125Z,78.00
2018-09-09T16:58:33.259Z,78.00
2018-09-09T17:01:02.257Z,77.60
2018-09-09T17:03:30.389Z,78.40
2018-09-09T17:05:58.512Z,79.30
2018-09-09T17:08:26.590Z,80.60
2018-09-09T17:10:54.800Z,80.50
2018-09-09T17:13:22.882Z,82.50
2018-09-09T17:15:51.127Z,82.50
2018-09-09T17:18:19.297Z,83.90
2018-09-09T17:20:47.452Z,84.30
2018-09-09T17:23:15.652Z,83.80
2018-09-09T17:25:43.764Z,87.10
2018-09-09T17:28:11.935Z,85.90
2018-09-09T17:30:40.042Z,85.90
2018-09-09T17:33:08.120Z,85.80
2018-09-09T17:35:36.280Z,87.50
2018-09-09T17:38:04.072Z,86.70
2018-09-09T17:40:32.174Z,86.50
2018-09-09T17:43:00.388Z,85.70
2018-09-09T17:45:28.496Z,86.00
2018-09-09T17:47:56.601Z,86.40
2018-09-09T17:50:24.756Z,86.50
2018-09-09T17:52:52.910Z,86.80
2018-09-09T17:55:20.945Z,87.10
2018-09-09T17:57:49.082Z,87.90
2018-09-09T18:00:17.237Z,90.10
2018-09-09T18:02:44.946Z,90.00
2018-09-09T18:05:13.061Z,90.00
2018-09-09T18:07:41.241Z,90.10
2018-09-09T18:10:09.385Z,90.50
2018-09-09T18:12:37.492Z,90.10
2018-09-09T18:15:06.110Z,90.00
2018-09-09T18:17:34.280Z,90.00
2018-09-09T18:20:02.477Z,90.10
2018-09-09T18:22:30.600Z,90.20
2018-09-09T18:24:59.781Z,89.60
2018-09-09T18:27:28.075Z,89.80
2018-09-09T18:29:56.213Z,90.40
2018-09-09T18:32:25.056Z,90.30
2018-09-09T18:34:53.562Z,90.30
2018-09-09T18:37:21.710Z,90.30
2018-09-09T18:39:49.909Z,90.80
2018-09-09T18:42:18.036Z,90.90
2018-09-09T18:44:46.171Z,90.80
2018-09-09T18:47:14.281Z,90.20
2018-09-09T18:49:42.406Z,90.10
2018-09-09T18:52:10.571Z,89.20
2018-09-09T18:54:41.282Z,89.60
2018-09-09T18:57:10.061Z,90.30
2018-09-09T18:59:38.337Z,90.30
2018-09-09T19:02:06.452Z,90.50
2018-09-09T19:04:34.752Z,90.30
2018-09-09T19:07:02.976Z,90.50
2018-09-09T19:09:31.069Z,90.30
2018-09-09T19:11:59.196Z,90.60
2018-09-09T19:14:27.391Z,90.70
2018-09-09T19:16:55.485Z,90.60
2018-09-09T19:19:23.601Z,90.80
2018-09-09T19:21:51.833Z,90.80
2018-09-09T19:24:19.900Z,91.20
2018-09-09T19:26:48.028Z,91.00
2018-09-09T19:29:16.188Z,90.80
2018-09-09T19:31:44.335Z,91.00
2018-09-09T19:34:12.797Z,91.30
2018-09-09T19:36:40.999Z,90.60
2018-09-09T19:39:10.740Z,91.10
2018-09-09T19:41:38.836Z,91.30
2018-09-09T19:44:07.220Z,91.30
2018-09-09T19:46:35.322Z,91.40
2018-09-09T19:49:04.022Z,91.40
2018-09-09T19:51:32.184Z,91.80
2018-09-09T19:54:00.390Z,91.80
2018-09-09T19:56:28.517Z,91.90
2018-09-09T19:58:56.614Z,91.80
2018-09-09T20:01:24.808Z,91.60
2018-09-09T20:03:52.463Z,91.50
2018-09-09T20:06:20.584Z,91.70
2018-09-09T20:08:48.724Z,92.00
2018-09-09T20:11:16.820Z,91.60
2018-09-09T20:13:44.998Z,91.60
2018-09-09T20:16:13.108Z,91.60
2018-09-09T20:18:41.198Z,91.70
2018-09-09T20:21:09.530Z,91.60
2018-09-09T20:23:37.640Z,92.20
2018-09-09T20:26:06.185Z,92.20
2018-09-09T20:28:34.360Z,92.50
2018-09-09T20:31:02.569Z,92.50
2018-09-09T20:33:30.676Z,93.10
2018-09-09T20:35:58.832Z,93.20
2018-09-09T20:38:26.900Z,92.90
2018-09-09T20:40:55.019Z,93.00
2018-09-09T20:43:23.145Z,92.90
2018-09-09T20:45:53.079Z,92.70
2018-09-09T20:48:21.193Z,92.40
2018-09-09T20:50:49.280Z,93.10
2018-09-09T20:53:17.435Z,93.10
2018-09-09T20:55:45.535Z,93.30
2018-09-09T20:58:13.645Z,93.20
2018-09-09T21:00:41.920Z,92.90
2018-09-09T21:03:09.548Z,93.30
2018-09-09T21:05:37.661Z,93.60
2018-09-09T21:08:05.772Z,93.40
2018-09-09T21:10:33.857Z,93.70
2018-09-09T21:13:01.945Z,93.50
2018-09-09T21:15:30.816Z,94.00
2018-09-09T21:17:58.974Z,94.30
2018-09-09T21:20:27.078Z,94.00
2018-09-09T21:22:55.191Z,93.90
2018-09-09T21:25:23.278Z,94.20
2018-09-09T21:27:51.436Z,94.60
2018-09-09T21:30:19.515Z,94.40
2018-09-09T21:32:47.786Z,94.30
2018-09-09T21:35:15.873Z,94.60
2018-09-09T21:37:43.972Z,94.50
2018-09-09T21:40:12.360Z,94.70
2018-09-09T21:42:40.476Z,94.70
2018-09-09T21:45:08.561Z,95.00
2018-09-09T21:47:36.703Z,95.10
2018-09-09T21:50:04.787Z,95.70
2018-09-09T21:52:32.896Z,96.20
2018-09-09T21:55:01.025Z,96.70
2018-09-09T21:57:29.142Z,96.70
2018-09-09T21:59:57.213Z,97.10
2018-09-09T22:02:24.420Z,97.70
2018-09-09T22:04:52.500Z,98.10
2018-09-09T22:07:20.608Z,98.00
2018-09-09T22:09:48.795Z,98.20
2018-09-09T22:12:16.970Z,98.30
2018-09-09T22:14:45.027Z,98.40
2018-09-09T22:17:13.164Z,97.70
2018-09-09T22:19:41.248Z,97.30
2018-09-09T22:22:09.339Z,97.40
2018-09-09T22:24:38.535Z,98.30
2018-09-09T22:27:06.675Z,99.20
2018-09-09T22:29:34.807Z,99.90
2018-09-09T22:32:02.952Z,99.90
2018-09-09T22:34:31.078Z,99.90
2018-09-09T22:36:59.184Z,99.90
2018-09-09T22:39:27.277Z,99.90
2018-09-09T22:41:55.368Z,99.90
2018-09-09T22:44:23.480Z,99.90
